Time;durP1;ratioP1;P1;durP2;ratioP2;P2;SDS_P1;SDS_P2;PMS_P1;PMS_P2;Temp;Humidity;BMP_temperature;BMP_pressure;BME280_temperature;BME280_humidity;BME280_pressure;Samples;Min_cycle;Max_cycle;Signal;HPM_P1;HPM_P2
2022/06/05 00:02:31;;;;;;;8.27;7.35;;;;;;;22.99;nan;99716.97;4960706;28;20031;-74
2022/06/05 00:05:17;;;;;;;12.35;7.35;;;;;;;22.99;nan;99708.06;4963693;28;20130;-74
2022/06/05 00:07:53;;;;;;;11.73;7.95;;;;;;;22.97;nan;99705.63;4965324;28;20042;-74
2022/06/05 00:10:26;;;;;;;11.88;7.97;;;;;;;22.94;nan;99697.97;4959976;28;20070;-74
2022/06/05 00:13:04;;;;;;;11.07;7.00;;;;;;;22.92;nan;99678.50;4962693;28;20057;-74
2022/06/05 00:15:30;;;;;;;10.63;6.88;;;;;;;22.90;nan;99688.69;4960495;28;20027;-74
2022/06/05 00:17:55;;;;;;;11.63;7.03;;;;;;;22.88;nan;99688.06;4963350;28;20222;-72
2022/06/05 00:20:22;;;;;;;17.73;7.78;;;;;;;22.82;nan;99694.31;4961014;28;20034;-73
2022/06/05 00:22:48;;;;;;;10.88;7.93;;;;;;;22.77;nan;99705.75;4962056;28;20372;-73
2022/06/05 00:25:14;;;;;;;15.25;7.95;;;;;;;22.75;nan;99712.38;4961789;28;20033;-72
2022/06/05 00:27:50;;;;;;;10.75;8.10;;;;;;;22.69;nan;99707.84;4960886;28;20032;-72
2022/06/05 00:30:34;;;;;;;9.52;7.85;;;;;;;22.62;nan;99707.06;4961431;28;20039;-73
2022/06/05 00:33:05;;;;;;;12.70;9.52;;;;;;;22.39;nan;99697.69;4963510;28;20066;-73
2022/06/05 00:35:39;;;;;;;10.13;8.73;;;;;;;22.34;nan;99694.81;4960235;28;20110;-74
2022/06/05 00:38:54;;;;;;;12.93;10.02;;;;;;;22.33;nan;99698.53;4965576;28;20050;-72
2022/06/05 00:41:40;;;;;;;11.32;9.80;;;;;;;22.18;nan;99697.19;4952396;28;20055;-73
2022/06/05 00:44:09;;;;;;;12.73;10.15;;;;;;;21.81;nan;99698.75;4960698;28;20498;-74
2022/06/05 00:46:37;;;;;;;11.68;9.07;;;;;;;21.58;nan;99699.22;4962990;28;20027;-73
2022/06/05 00:53:27;;;;;;;13.20;9.82;;;;;;;21.48;nan;99702.34;4958510;28;20042;-73
2022/06/05 00:55:53;;;;;;;10.93;9.82;;;;;;;21.47;nan;99698.00;4961810;28;20027;-72
2022/06/05 00:58:20;;;;;;;12.10;10.32;;;;;;;21.49;nan;99697.81;4958109;28;20058;-72
2022/06/05 01:00:49;;;;;;;16.45;11.00;;;;;;;21.51;nan;99703.78;4961723;28;20042;-74
2022/06/05 01:03:30;;;;;;;12.38;9.15;;;;;;;21.46;nan;99711.63;4962468;28;20109;-74
2022/06/05 01:05:56;;;;;;;14.07;9.73;;;;;;;21.43;nan;99710.22;4965759;28;20121;-74
2022/06/05 01:08:21;;;;;;;13.15;9.35;;;;;;;21.39;nan;99722.38;4967738;28;20064;-74
2022/06/05 01:11:02;;;;;;;10.90;9.05;;;;;;;21.39;nan;99721.53;4965129;28;20039;-74
2022/06/05 01:13:56;;;;;;;12.27;10.10;;;;;;;21.36;nan;99717.44;4963181;28;20031;-72
2022/06/05 01:16:54;;;;;;;10.43;9.30;;;;;;;21.36;nan;99714.75;4966140;28;20046;-74
2022/06/05 01:20:07;;;;;;;12.98;9.68;;;;;;;21.38;nan;99710.00;4962832;28;20062;-73
2022/06/05 01:22:44;;;;;;;18.83;9.40;;;;;;;21.36;nan;99717.44;4968763;28;20045;-73
2022/06/05 01:25:30;;;;;;;16.80;10.07;;;;;;;21.34;nan;99703.38;4964743;28;20443;-72
2022/06/05 01:28:04;;;;;;;13.23;10.18;;;;;;;21.11;nan;99692.22;4962479;28;20124;-73
2022/06/05 01:30:33;;;;;;;11.82;10.45;;;;;;;20.91;nan;99696.78;4963202;28;20110;-73
2022/06/05 01:33:15;;;;;;;11.50;9.90;;;;;;;20.79;nan;99694.69;4963160;28;20547;-73
2022/06/05 01:35:43;;;;;;;15.35;10.43;;;;;;;20.71;nan;99697.59;4963818;28;20420;-73
2022/06/05 01:38:21;;;;;;;14.07;9.73;;;;;;;20.66;nan;99694.72;4982446;28;20893;-72
2022/06/05 01:40:55;;;;;;;16.65;9.98;;;;;;;20.60;nan;99700.88;4963778;28;20035;-73
2022/06/05 01:43:32;;;;;;;12.93;10.15;;;;;;;20.47;nan;99683.94;4965186;28;20110;-72
2022/06/05 01:46:14;;;;;;;15.88;10.75;;;;;;;20.37;nan;99677.13;4945224;28;20877;-73
2022/06/05 01:49:05;;;;;;;15.57;11.35;;;;;;;20.37;nan;99684.34;4963345;28;20039;-72
2022/06/05 01:51:40;;;;;;;15.60;11.23;;;;;;;20.38;nan;99691.34;4961452;28;20046;-72
2022/06/05 01:54:14;;;;;;;13.32;11.82;;;;;;;20.42;nan;99697.97;4962974;28;20042;-73
2022/06/05 01:56:45;;;;;;;13.07;11.77;;;;;;;20.50;nan;99705.78;4964661;28;20042;-73
2022/06/05 01:59:19;;;;;;;14.32;11.68;;;;;;;20.55;nan;99703.34;4963898;28;20031;-72
2022/06/05 02:01:51;;;;;;;14.75;12.27;;;;;;;20.63;nan;99716.53;4963701;28;20386;-73
2022/06/05 02:04:46;;;;;;;18.63;13.52;;;;;;;20.67;nan;99707.09;4964749;28;20055;-72
2022/06/05 02:07:36;;;;;;;17.92;13.63;;;;;;;20.73;nan;99695.53;4968258;28;20443;-72
2022/06/05 02:10:13;;;;;;;14.32;13.02;;;;;;;20.79;nan;99702.75;4962630;28;20035;-73
2022/06/05 02:12:39;;;;;;;15.88;12.63;;;;;;;20.74;nan;99694.50;4962454;28;20042;-72
2022/06/05 02:15:06;;;;;;;13.48;12.02;;;;;;;20.78;nan;99681.50;4965149;28;20109;-73
2022/06/05 02:17:32;;;;;;;14.85;12.90;;;;;;;20.82;nan;99696.97;4962252;28;20035;-72
2022/06/05 02:19:59;;;;;;;14.32;12.30;;;;;;;20.66;nan;99707.28;4965514;28;20935;-73
2022/06/05 02:22:32;;;;;;;16.45;13.23;;;;;;;20.37;nan;99705.78;4962227;28;20106;-74
2022/06/05 02:24:58;;;;;;;15.10;13.25;;;;;;;20.49;nan;99709.53;4962194;28;20330;-73
2022/06/05 02:27:26;;;;;;;19.58;15.52;;;;;;;20.51;nan;99707.44;4965244;28;20522;-73
2022/06/05 02:29:53;;;;;;;19.73;16.75;;;;;;;20.45;nan;99721.66;4962340;28;20110;-73
2022/06/05 02:32:27;;;;;;;19.98;16.05;;;;;;;20.41;nan;99712.38;4964073;28;20043;-73
2022/06/05 02:35:26;;;;;;;18.02;16.27;;;;;;;20.49;nan;99714.88;4962108;28;20074;-73
2022/06/05 02:37:54;;;;;;;18.00;15.77;;;;;;;20.51;nan;99707.44;4967836;28;20169;-73
2022/06/05 02:40:41;;;;;;;19.00;16.77;;;;;;;20.46;nan;99709.91;4962842;28;20487;-73
2022/06/05 02:43:37;;;;;;;20.02;17.40;;;;;;;20.40;nan;99705.34;4962598;28;20443;-72
2022/06/05 02:46:19;;;;;;;19.05;16.67;;;;;;;20.42;nan;99692.59;4961736;28;20043;-73
2022/06/05 02:48:57;;;;;;;19.75;15.13;;;;;;;20.36;nan;99691.56;4962972;28;20475;-73
2022/06/05 02:51:29;;;;;;;15.05;13.18;;;;;;;20.32;nan;99702.88;4964733;28;20402;-73
2022/06/05 02:53:57;;;;;;;19.77;15.27;;;;;;;20.18;nan;99696.63;4961300;28;20101;-74
2022/06/05 02:56:26;;;;;;;17.42;14.27;;;;;;;20.02;nan;99697.81;4964534;28;20442;-73
2022/06/05 02:58:53;;;;;;;23.42;14.50;;;;;;;19.90;nan;99694.03;4961972;28;20031;-73
2022/06/05 03:04:03;;;;;;;22.38;15.00;;;;;;;19.73;nan;99695.41;4961518;28;20041;-73
2022/06/05 03:06:31;;;;;;;22.70;15.68;;;;;;;19.73;nan;99692.72;4965465;28;20041;-74
2022/06/05 03:08:57;;;;;;;20.85;16.02;;;;;;;19.81;nan;99689.88;4963198;28;20035;-73
2022/06/05 03:11:23;;;;;;;20.63;16.90;;;;;;;19.91;nan;99682.28;4960742;28;20373;-74
2022/06/05 03:13:48;;;;;;;24.45;18.48;;;;;;;20.01;nan;99685.44;4962235;28;20114;-73
2022/06/05 03:16:14;;;;;;;20.42;16.33;;;;;;;20.10;nan;99687.91;4962186;28;20057;-73
2022/06/05 03:18:40;;;;;;;22.40;17.33;;;;;;;20.08;nan;99684.63;4959381;28;20126;-74
2022/06/05 03:21:05;;;;;;;20.50;16.13;;;;;;;19.90;nan;99677.97;4963115;28;20037;-73
2022/06/05 03:23:32;;;;;;;19.17;15.88;;;;;;;19.73;nan;99689.22;4959136;28;20090;-73
2022/06/05 03:25:58;;;;;;;17.73;14.32;;;;;;;19.62;nan;99690.59;4960075;28;20027;-74
2022/06/05 03:28:23;;;;;;;19.80;15.55;;;;;;;19.53;nan;99691.78;4963245;28;20569;-74
2022/06/05 03:30:48;;;;;;;24.40;15.77;;;;;;;19.47;nan;99682.69;4960764;28;20038;-74
2022/06/05 03:33:14;;;;;;;19.92;16.35;;;;;;;19.45;nan;99683.88;4960317;28;20032;-73
2022/06/05 03:35:42;;;;;;;24.05;17.65;;;;;;;19.44;nan;99683.03;4961849;28;20030;-74
2022/06/05 03:38:09;;;;;;;25.10;17.65;;;;;;;19.49;nan;99679.81;4965513;28;20046;-73
2022/06/05 03:40:35;;;;;;;30.20;18.38;;;;;;;19.54;nan;99682.72;4959987;28;20076;-74
2022/06/05 03:43:01;;;;;;;26.80;18.77;;;;;;;19.60;nan;99681.94;4963250;28;20072;-73
2022/06/05 03:45:27;;;;;;;27.63;18.67;;;;;;;19.65;nan;99678.66;4958971;28;20032;-74
2022/06/05 03:47:52;;;;;;;20.05;16.88;;;;;;;19.69;nan;99686.09;4963638;28;20549;-74
2022/06/05 03:50:18;;;;;;;23.92;17.20;;;;;;;19.69;nan;99669.22;4961512;28;20039;-74
2022/06/05 03:52:45;;;;;;;20.42;15.98;;;;;;;19.68;nan;99663.03;4961598;28;20035;-74
2022/06/05 03:55:14;;;;;;;22.08;13.95;;;;;;;19.59;nan;99658.88;4962637;28;20402;-74
2022/06/05 03:57:40;;;;;;;17.15;12.50;;;;;;;19.49;nan;99653.06;4961485;28;20495;-73
2022/06/05 04:00:07;;;;;;;23.75;14.88;;;;;;;19.44;nan;99660.81;4962182;28;20549;-74
2022/06/05 04:02:37;;;;;;;21.13;16.40;;;;;;;19.42;nan;99657.50;4961148;28;20035;-73
2022/06/05 04:05:04;;;;;;;21.92;16.67;;;;;;;19.46;nan;99664.16;4963406;28;20027;-74
2022/06/05 04:07:30;;;;;;;23.00;16.08;;;;;;;19.56;nan;99653.91;4961257;28;20058;-73
2022/06/05 04:09:55;;;;;;;22.48;18.40;;;;;;;19.67;nan;99650.69;4963110;28;20047;-74
2022/06/05 04:12:21;;;;;;;26.02;16.88;;;;;;;19.72;nan;99653.59;4961140;28;20046;-74
2022/06/05 04:14:46;;;;;;;22.02;16.42;;;;;;;19.80;nan;99649.88;4961962;28;20031;-74
2022/06/05 04:17:12;;;;;;;26.10;16.27;;;;;;;19.85;nan;99645.59;4962279;28;20121;-74
2022/06/05 04:19:38;;;;;;;22.13;15.80;;;;;;;19.94;nan;99647.09;4975585;28;20071;-74
2022/06/05 04:22:04;;;;;;;18.60;15.13;;;;;;;20.04;nan;99652.03;4961974;28;20046;-74
2022/06/05 04:24:30;;;;;;;19.98;13.65;;;;;;;20.11;nan;99652.06;4960017;28;20042;-74
2022/06/05 04:26:55;;;;;;;23.83;14.85;;;;;;;20.15;nan;99658.66;4962966;28;20353;-74
2022/06/05 04:29:21;;;;;;;16.35;12.48;;;;;;;20.14;nan;99646.31;4960982;28;20030;-73
2022/06/05 04:31:47;;;;;;;19.42;11.95;;;;;;;20.15;nan;99645.28;4976626;28;20034;-73
2022/06/05 04:34:16;;;;;;;16.80;11.70;;;;;;;20.14;nan;99636.44;4963344;28;20487;-73
2022/06/05 04:36:43;;;;;;;14.52;10.70;;;;;;;20.11;nan;99630.63;4971065;28;20074;-74
2022/06/05 04:39:08;;;;;;;21.20;9.95;;;;;;;20.02;nan;99636.19;4968656;28;20054;-73
2022/06/05 04:41:34;;;;;;;17.27;10.13;;;;;;;19.99;nan;99633.91;4966454;28;20057;-74
2022/06/05 04:44:00;;;;;;;16.73;10.43;;;;;;;20.05;nan;99637.63;4969796;28;20034;-73
2022/06/05 04:46:27;;;;;;;15.27;11.07;;;;;;;20.04;nan;99647.50;4966726;28;20059;-73
2022/06/05 04:48:53;;;;;;;13.45;11.25;;;;;;;19.90;nan;99645.84;4969121;28;20510;-73
2022/06/05 04:51:19;;;;;;;20.98;10.57;;;;;;;19.89;nan;99641.50;4967367;28;20034;-73
2022/06/05 04:53:46;;;;;;;18.88;11.90;;;;;;;19.84;nan;99635.94;4967394;28;20027;-74
2022/06/05 04:56:15;;;;;;;20.17;11.68;;;;;;;19.87;nan;99632.00;4968181;28;20475;-73
2022/06/05 04:58:41;;;;;;;13.77;11.57;;;;;;;19.92;nan;99633.06;4967136;28;20166;-73
2022/06/05 05:01:20;;;;;;;17.73;12.73;;;;;;;20.01;nan;99642.56;4969426;28;20711;-73
2022/06/05 05:03:46;;;;;;;17.83;13.13;;;;;;;20.11;nan;99646.72;4982794;28;20027;-73
2022/06/05 05:06:13;;;;;;;22.27;14.20;;;;;;;20.16;nan;99638.88;4968391;28;20100;-72
2022/06/05 05:08:39;;;;;;;25.13;18.48;;;;;;;20.25;nan;99649.25;4970293;28;20050;-73
2022/06/05 05:11:05;;;;;;;30.92;18.70;;;;;;;20.35;nan;99644.34;4969062;28;20126;-73
2022/06/05 05:13:31;;;;;;;29.42;18.23;;;;;;;20.40;nan;99646.41;4966335;28;20027;-73
2022/06/05 05:15:56;;;;;;;26.13;18.67;;;;;;;20.47;nan;99633.84;4969276;28;20037;-74
2022/06/05 05:18:23;;;;;;;26.13;18.60;;;;;;;20.47;nan;99641.88;4981756;28;20047;-73
2022/06/05 05:20:50;;;;;;;26.33;18.17;;;;;;;20.59;nan;99637.56;4968475;28;20048;-74
2022/06/05 05:23:16;;;;;;;24.17;19.10;;;;;;;20.71;nan;99643.13;4967289;28;20030;-72
2022/06/05 05:25:42;;;;;;;26.08;19.35;;;;;;;20.77;nan;99635.09;4965777;28;20031;-74
2022/06/05 05:28:08;;;;;;;23.83;17.73;;;;;;;20.86;nan;99635.69;4968783;28;20414;-73
2022/06/05 05:30:34;;;;;;;22.70;18.25;;;;;;;20.96;nan;99636.13;4966094;28;20047;-74
2022/06/05 05:33:00;;;;;;;21.27;17.60;;;;;;;21.05;nan;99634.03;4969521;28;20038;-73
2022/06/05 05:35:26;;;;;;;19.98;17.17;;;;;;;21.13;nan;99636.50;4965037;28;20523;-73
2022/06/05 05:37:51;;;;;;;23.00;18.17;;;;;;;21.18;nan;99631.38;4971880;28;20043;-73
2022/06/05 05:43:00;;;;;;;27.23;19.23;;;;;;;21.34;nan;99628.22;4965846;28;20031;-73
2022/06/05 05:45:26;;;;;;;24.98;19.77;;;;;;;21.38;nan;99640.22;4968568;28;20085;-72
2022/06/05 05:47:52;;;;;;;27.80;20.77;;;;;;;21.43;nan;99643.09;4962519;28;20490;-73
2022/06/05 05:50:17;;;;;;;27.42;22.02;;;;;;;21.53;nan;99648.00;4964605;28;20059;-73
2022/06/05 05:52:44;;;;;;;32.72;23.38;;;;;;;21.62;nan;99660.97;4964121;28;20037;-73
2022/06/05 05:55:16;;;;;;;32.72;24.48;;;;;;;21.74;nan;99658.47;4963445;28;20039;-73
2022/06/05 05:57:43;;;;;;;33.78;28.17;;;;;;;21.77;nan;99649.16;4964233;28;20376;-73
2022/06/05 06:00:11;;;;;;;42.10;29.90;;;;;;;21.79;nan;99647.09;4963285;28;20027;-73
2022/06/05 06:02:38;;;;;;;47.55;32.47;;;;;;;21.79;nan;99652.47;4964728;28;20391;-73
2022/06/05 06:05:05;;;;;;;40.75;29.88;;;;;;;21.87;nan;99654.91;4962759;28;20035;-73
2022/06/05 06:07:30;;;;;;;41.78;30.10;;;;;;;21.84;nan;99650.81;4980306;28;20034;-73
2022/06/05 06:09:56;;;;;;;40.33;30.02;;;;;;;21.84;nan;99653.50;4976529;28;20039;-74
2022/06/05 06:12:23;;;;;;;41.20;31.45;;;;;;;21.91;nan;99653.47;4964747;28;20035;-74
2022/06/05 06:14:49;;;;;;;40.75;31.05;;;;;;;21.91;nan;99656.94;4962947;28;20600;-73
2022/06/05 06:17:15;;;;;;;41.75;33.22;;;;;;;21.75;nan;99656.59;4978830;28;20052;-73
2022/06/05 06:19:41;;;;;;;42.97;33.28;;;;;;;21.70;nan;99664.47;4979127;28;20038;-73
2022/06/05 06:22:07;;;;;;;52.33;36.42;;;;;;;21.63;nan;99665.31;4962700;28;20035;-73
2022/06/05 06:24:33;;;;;;;54.10;37.78;;;;;;;21.74;nan;99665.69;4965316;28;20189;-73
2022/06/05 06:26:58;;;;;;;59.38;38.92;;;;;;;21.85;nan;99657.81;4960492;28;20491;-72
2022/06/05 06:29:24;;;;;;;61.13;38.17;;;;;;;21.97;nan;99655.31;4964910;28;20038;-73
2022/06/05 06:31:49;;;;;;;59.72;39.55;;;;;;;22.09;nan;99669.72;4962551;28;20042;-73
2022/06/05 06:34:15;;;;;;;51.70;38.08;;;;;;;22.22;nan;99668.81;4978467;28;20038;-73
2022/06/05 06:36:40;;;;;;;51.65;37.72;;;;;;;22.38;nan;99674.50;4966859;28;20038;-73
2022/06/05 06:39:06;;;;;;;52.03;36.47;;;;;;;22.51;nan;99662.03;4964491;28;20386;-74
2022/06/05 06:41:32;;;;;;;46.85;34.88;;;;;;;22.61;nan;99646.25;4961539;28;20035;-74
2022/06/05 06:43:57;;;;;;;47.90;35.25;;;;;;;22.71;nan;99649.28;4964587;28;20049;-72
2022/06/05 06:46:22;;;;;;;48.08;35.10;;;;;;;22.73;nan;99639.16;4962307;28;20043;-73
2022/06/05 06:48:48;;;;;;;46.42;33.30;;;;;;;22.76;nan;99644.09;4963484;28;20035;-74
2022/06/05 06:51:15;;;;;;;48.33;35.60;;;;;;;22.88;nan;99636.94;4963106;28;20039;-73
2022/06/05 06:53:42;;;;;;;44.75;35.20;;;;;;;23.00;nan;99643.25;4962281;28;20055;-73
2022/06/05 06:56:18;;;;;;;39.05;31.52;;;;;;;23.11;nan;99653.28;4964220;28;20489;-74
2022/06/05 06:58:44;;;;;;;41.63;31.20;;;;;;;23.22;nan;99646.34;4962326;28;20040;-75
2022/06/05 07:01:10;;;;;;;41.22;29.52;;;;;;;23.36;nan;99647.06;4963600;28;20055;-72
2022/06/05 07:03:36;;;;;;;37.25;29.85;;;;;;;23.48;nan;99642.59;4963023;28;20170;-73
2022/06/05 07:06:04;;;;;;;35.13;28.10;;;;;;;23.59;nan;99649.94;4963299;28;20034;-73
2022/06/05 07:08:29;;;;;;;43.88;32.33;;;;;;;23.62;nan;99660.28;4961664;28;20031;-75
2022/06/05 07:10:55;;;;;;;37.08;29.13;;;;;;;23.68;nan;99664.75;4961926;28;20533;-72
2022/06/05 07:13:20;;;;;;;33.83;28.00;;;;;;;23.78;nan;99670.44;4976056;28;20049;-73
2022/06/05 07:15:46;;;;;;;37.03;27.42;;;;;;;23.85;nan;99663.13;4963054;28;20081;-71
2022/06/05 07:18:12;;;;;;;35.72;26.95;;;;;;;23.85;nan;99665.81;4967040;28;20023;-72
2022/06/05 07:20:40;;;;;;;44.95;25.73;;;;;;;23.91;nan;99662.22;4959211;28;20057;-71
2022/06/05 07:23:06;;;;;;;32.30;22.58;;;;;;;23.97;nan;99658.59;4625349;28;10000000;-71
2022/06/05 07:25:33;;;;;;;26.70;20.98;;;;;;;24.10;nan;99652.19;4959298;28;20445;-71
2022/06/05 07:27:59;;;;;;;32.97;25.73;;;;;;;24.08;nan;99654.31;4963742;28;20074;-72
2022/06/05 07:30:25;;;;;;;36.00;25.98;;;;;;;24.03;nan;99657.66;4959606;28;20035;-72
2022/06/05 07:32:51;;;;;;;33.97;24.23;;;;;;;24.15;nan;99654.22;4960260;28;20463;-72
2022/06/05 07:35:17;;;;;;;33.17;24.88;;;;;;;24.25;nan;99638.34;4960330;28;20102;-72
2022/06/05 07:37:43;;;;;;;32.75;23.85;;;;;;;24.30;nan;99631.22;4962099;28;20053;-72
2022/06/05 07:40:09;;;;;;;31.85;23.90;;;;;;;24.42;nan;99628.56;4957519;28;20399;-72
2022/06/05 07:42:39;;;;;;;26.10;22.33;;;;;;;24.51;nan;99621.75;4964682;28;20042;-74
2022/06/05 07:45:06;;;;;;;34.35;24.33;;;;;;;24.59;nan;99621.44;4960761;28;20062;-72
2022/06/05 07:47:32;;;;;;;32.30;22.58;;;;;;;24.59;nan;99618.72;4958426;28;20057;-72
2022/06/05 07:49:58;;;;;;;34.55;21.60;;;;;;;24.67;nan;99626.50;4274601;28;10000691;-72
2022/06/05 07:55:09;;;;;;;26.55;20.08;;;;;;;24.95;nan;99638.53;4964765;28;20035;-72
2022/06/05 07:57:34;;;;;;;23.38;19.80;;;;;;;25.09;nan;99646.16;4960310;28;20055;-72
2022/06/05 08:00:00;;;;;;;26.60;19.67;;;;;;;25.23;nan;99641.34;4966426;28;20122;-74
2022/06/05 08:02:27;;;;;;;22.88;17.67;;;;;;;25.34;nan;99626.16;4961721;28;20114;-72
2022/06/05 08:04:54;;;;;;;30.80;21.02;;;;;;;25.43;nan;99633.69;4965249;28;20043;-72
2022/06/05 08:07:25;;;;;;;26.67;20.50;;;;;;;25.55;nan;99629.09;4961225;28;20500;-71
2022/06/05 08:09:52;;;;;;;26.40;23.13;;;;;;;25.67;nan;99631.81;4961379;28;20035;-74
2022/06/05 08:12:20;;;;;;;32.20;23.00;;;;;;;25.74;nan;99643.31;4960086;28;20494;-73
2022/06/05 08:14:48;;;;;;;20.60;16.95;;;;;;;25.80;nan;99636.13;4940669;28;20031;-76
2022/06/05 08:17:17;;;;;;;24.90;18.63;;;;;;;25.88;nan;99638.44;4959385;28;20046;-74
2022/06/05 08:19:44;;;;;;;28.13;19.00;;;;;;;25.95;nan;99634.53;4964811;28;20039;-73
2022/06/05 08:22:11;;;;;;;29.08;19.30;;;;;;;26.01;nan;99632.75;4975035;28;20042;-74
2022/06/05 08:24:37;;;;;;;24.88;19.02;;;;;;;26.03;nan;99641.44;4968390;28;20038;-74
2022/06/05 08:27:03;;;;;;;18.50;16.50;;;;;;;26.07;nan;99637.19;4962535;28;20019;-73
2022/06/05 08:29:28;;;;;;;23.60;17.00;;;;;;;26.12;nan;99634.56;4963667;28;20034;-73
2022/06/05 08:31:54;;;;;;;17.15;13.90;;;;;;;26.24;nan;99627.25;4962676;28;20820;-73
2022/06/05 08:34:20;;;;;;;22.35;17.23;;;;;;;26.38;nan;99625.91;4961832;28;20044;-73
2022/06/05 08:36:47;;;;;;;23.30;18.77;;;;;;;26.48;nan;99623.38;4958130;28;20123;-73
2022/06/05 08:42:30;;;;;;;26.77;21.35;;;;;;;26.56;nan;99630.28;4962893;28;21089;-75
2022/06/05 08:45:07;;;;;;;27.00;19.08;;;;;;;26.64;nan;99626.31;4961089;28;20387;-72
2022/06/05 08:47:45;;;;;;;22.45;19.00;;;;;;;26.74;nan;99621.09;4960825;28;20027;-74
2022/06/05 08:50:36;;;;;;;30.55;21.83;;;;;;;26.63;nan;99621.97;4959219;28;20058;-74
2022/06/05 08:53:33;;;;;;;24.58;16.40;;;;;;;26.77;nan;99616.00;4962375;28;20066;-73
2022/06/05 08:55:59;;;;;;;22.35;16.70;;;;;;;26.89;nan;99610.53;4961975;28;20814;-73
2022/06/05 08:58:36;;;;;;;18.98;14.98;;;;;;;27.03;nan;99605.59;4962126;28;20054;-73
2022/06/05 09:01:03;;;;;;;18.15;14.93;;;;;;;27.12;nan;99604.91;4964241;28;20093;-72
2022/06/05 09:03:42;;;;;;;23.10;14.77;;;;;;;27.19;nan;99602.84;4962287;28;20061;-74
2022/06/05 09:06:25;;;;;;;18.13;12.60;;;;;;;27.28;nan;99590.50;4962572;28;20471;-73
2022/06/05 09:08:55;;;;;;;18.67;12.32;;;;;;;27.33;nan;99597.09;4960255;28;20118;-72
2022/06/05 09:11:51;;;;;;;14.90;11.45;;;;;;;27.27;nan;99599.69;4958865;28;20496;-74
2022/06/05 09:14:19;;;;;;;16.65;9.40;;;;;;;27.31;nan;99594.63;4962707;28;20542;-75
2022/06/05 09:16:51;;;;;;;13.57;8.07;;;;;;;27.36;nan;99596.56;4961824;28;20078;-74
2022/06/05 09:19:21;;;;;;;14.02;8.02;;;;;;;27.44;nan;99593.44;4959232;28;20468;-75
2022/06/05 09:21:57;;;;;;;14.00;10.85;;;;;;;27.40;nan;99592.28;4961578;28;20509;-75
2022/06/05 09:24:37;;;;;;;13.30;8.57;;;;;;;27.47;nan;99592.91;4961542;28;20026;-75
2022/06/05 09:27:17;;;;;;;17.42;8.57;;;;;;;27.52;nan;99595.72;4965940;28;20042;-75
2022/06/05 09:29:53;;;;;;;11.18;8.45;;;;;;;27.52;nan;99595.72;4966327;28;20027;-74
2022/06/05 09:32:40;;;;;;;12.65;8.57;;;;;;;27.48;nan;99600.81;4965565;28;20488;-74
2022/06/05 09:35:12;;;;;;;15.65;8.32;;;;;;;27.48;nan;99599.97;4962752;28;20039;-72
2022/06/05 09:38:01;;;;;;;13.30;9.10;;;;;;;27.48;nan;99595.38;4963470;28;20045;-73
2022/06/05 09:40:39;;;;;;;12.20;9.30;;;;;;;27.49;nan;99607.03;4963229;28;20046;-71
2022/06/05 09:43:22;;;;;;;17.25;10.13;;;;;;;27.46;nan;99602.09;4965267;28;20061;-72
2022/06/05 09:46:08;;;;;;;16.48;10.52;;;;;;;27.52;nan;99606.56;4964127;28;20090;-72
2022/06/05 09:48:48;;;;;;;15.55;9.23;;;;;;;27.50;nan;99595.13;4963633;28;20179;-72
2022/06/05 09:51:17;;;;;;;21.05;10.20;;;;;;;27.55;nan;99595.22;4962264;28;20130;-71
2022/06/05 09:53:57;;;;;;;12.30;9.38;;;;;;;27.61;nan;99595.03;4966030;28;20043;-72
2022/06/05 09:56:31;;;;;;;12.15;9.40;;;;;;;27.63;nan;99586.63;4965005;28;20061;-72
2022/06/05 09:59:20;;;;;;;12.02;9.68;;;;;;;27.67;nan;99596.75;4962238;28;20037;-75
2022/06/05 10:01:59;;;;;;;13.05;9.52;;;;;;;27.73;nan;99597.63;4962658;28;20571;-72
2022/06/05 10:04:31;;;;;;;11.20;8.60;;;;;;;27.75;nan;99584.59;4968334;28;20062;-72
2022/06/05 10:07:13;;;;;;;13.05;10.27;;;;;;;27.68;nan;99584.00;4962523;28;20031;-72
2022/06/05 10:09:45;;;;;;;15.65;10.75;;;;;;;27.56;nan;99575.19;4963428;28;20038;-71
2022/06/05 10:12:21;;;;;;;12.35;9.60;;;;;;;27.48;nan;99562.03;4962732;28;20456;-72
2022/06/05 10:15:02;;;;;;;10.95;9.25;;;;;;;27.43;nan;99560.09;4962469;28;20740;-72
2022/06/05 10:17:31;;;;;;;14.82;9.95;;;;;;;27.33;nan;99548.31;4964450;28;20094;-72
2022/06/05 10:20:17;;;;;;;11.10;9.45;;;;;;;27.24;nan;99546.03;4962918;28;20037;-71
2022/06/05 10:23:10;;;;;;;17.88;10.52;;;;;;;27.14;nan;99543.19;4963257;28;20556;-71
2022/06/05 10:25:45;;;;;;;17.60;10.55;;;;;;;27.06;nan;99538.19;4962804;28;20110;-71
2022/06/05 10:28:21;;;;;;;15.35;10.13;;;;;;;26.97;nan;99523.47;4961853;28;20078;-77
2022/06/05 10:31:07;;;;;;;16.80;10.93;;;;;;;26.93;nan;99527.72;4960784;28;20054;-73
2022/06/05 10:33:39;;;;;;;15.15;8.57;;;;;;;26.89;nan;99523.88;4978302;28;20403;-73
2022/06/05 10:36:15;;;;;;;17.38;10.00;;;;;;;26.89;nan;99522.00;4963889;28;20030;-72
2022/06/05 10:39:00;;;;;;;15.45;9.48;;;;;;;26.93;nan;99527.72;4961842;28;20043;-72
2022/06/05 10:41:45;;;;;;;12.23;8.52;;;;;;;26.99;nan;99525.91;4961516;28;20032;-74
2022/06/05 10:44:25;;;;;;;14.98;9.23;;;;;;;26.99;nan;99515.88;4964104;28;20085;-73
2022/06/05 10:46:51;;;;;;;16.50;8.75;;;;;;;27.00;nan;99511.28;4958653;28;20043;-73
2022/06/05 10:49:25;;;;;;;11.50;8.75;;;;;;;27.09;nan;99505.22;4961502;28;20038;-72
2022/06/05 10:52:04;;;;;;;17.25;9.00;;;;;;;27.20;nan;99501.56;4963570;28;20050;-74
2022/06/05 10:54:48;;;;;;;16.13;8.73;;;;;;;27.30;nan;99480.00;4961244;28;20060;-71
2022/06/05 10:57:24;;;;;;;11.75;7.95;;;;;;;27.40;nan;99483.88;4962679;28;20027;-74
2022/06/05 11:00:01;;;;;;;16.77;9.27;;;;;;;27.50;nan;99468.56;4963199;28;20124;-74
2022/06/05 11:02:50;;;;;;;15.23;8.63;;;;;;;27.64;nan;99469.00;4961410;28;20077;-73
2022/06/05 11:05:34;;;;;;;15.67;9.03;;;;;;;27.84;nan;99466.50;4965806;28;20039;-72
2022/06/05 11:08:51;;;;;;;10.75;8.43;;;;;;;27.92;nan;99471.44;4959439;28;20051;-73
2022/06/05 11:14:53;;;;;;;13.30;5.78;;;;;;;28.04;nan;99447.66;4961901;28;20125;-73
2022/06/05 11:17:46;;;;;;;14.48;5.50;;;;;;;28.13;nan;99450.78;4961865;28;20050;-78
2022/06/05 11:20:23;;;;;;;19.30;6.18;;;;;;;28.20;nan;99445.94;4961078;28;20042;-73
2022/06/05 11:22:54;;;;;;;13.82;5.60;;;;;;;28.25;nan;99448.69;4962275;28;20034;-72
2022/06/05 11:25:25;;;;;;;16.30;8.63;;;;;;;28.28;nan;99450.06;4962177;28;20035;-78
2022/06/05 11:27:56;;;;;;;14.32;6.15;;;;;;;28.24;nan;99446.22;4961807;28;20031;-77
2022/06/05 11:30:27;;;;;;;;;;;;;;;28.29;nan;99451.69;4962771;28;20039;-74
2022/06/05 11:33:04;;;;;;;;;;;;;;;28.38;nan;99436.56;4961095;28;20360;-74
2022/06/05 11:35:35;;;;;;;;;;;;;;;28.51;nan;99441.56;4963545;28;19941;-73
2022/06/05 11:38:07;;;;;;;;;;;;;;;28.50;nan;99440.72;4964094;28;19989;-74
2022/06/05 11:40:47;;;;;;;;;;;;;;;28.46;nan;99444.22;4963986;28;20282;-73
2022/06/05 11:43:13;;;;;;;;;;;;;;;28.45;nan;99431.75;4963009;28;19918;-74
2022/06/05 11:45:57;;;;;;;;;;;;;;;28.39;nan;99421.94;4959947;28;19926;-72
2022/06/05 11:48:41;;;;;;;;;;;;;;;28.42;nan;99418.69;4961564;28;19918;-73
2022/06/05 11:51:13;;;;;;;;;;;;;;;28.44;nan;99413.81;4962398;28;19977;-76
2022/06/05 11:54:03;;;;;;;;;;;;;;;28.41;nan;99403.47;4961957;28;19953;-77
2022/06/05 11:56:40;;;;;;;;;;;;;;;28.40;nan;99390.97;4960835;28;19992;-78
2022/06/05 11:59:29;;;;;;;;;;;;;;;28.38;nan;99390.44;4960139;28;19925;-78
2022/06/05 12:02:13;;;;;;;;;;;;;;;28.45;nan;99393.75;4966844;28;19965;-76
2022/06/05 12:04:50;;;;;;;;;;;;;;;28.48;nan;99382.34;4962806;28;19918;-75
2022/06/05 12:07:16;;;;;;;;;;;;;;;28.47;nan;99384.25;4975161;28;19918;-79
2022/06/05 12:09:50;;;;;;;;;;;;;;;28.51;nan;99368.25;4960435;28;20399;-79
2022/06/05 12:12:16;;;;;;;;;;;;;;;28.59;nan;99359.59;4961597;28;19918;-77
2022/06/05 12:14:48;;;;;;;;;;;;;;;28.74;nan;99362.44;4962280;28;19917;-76
2022/06/05 12:17:31;;;;;;;;;;;;;;;28.92;nan;99356.47;4961236;28;19918;-82
2022/06/05 12:20:10;;;;;;;;;;;;;;;29.13;nan;99345.69;4961722;28;19921;-80
2022/06/05 12:22:38;;;;;;;;;;;;;;;29.42;nan;99338.69;4966598;28;19945;-75
2022/06/05 12:25:12;;;;;;;;;;;;;;;29.66;nan;99339.78;4961093;28;19922;-74